createdAt,value
2022-12-27T00:00:55.158Z,4.21
2022-12-27T00:01:55.997Z,4.21
2022-12-27T00:02:56.494Z,4.21
2022-12-27T00:03:56.677Z,4.22
2022-12-27T00:04:56.725Z,4.22
2022-12-27T00:05:57.155Z,4.22
2022-12-27T00:06:58.122Z,4.22
2022-12-27T00:07:59.068Z,4.22
2022-12-27T00:08:59.365Z,4.22
2022-12-27T00:10:00.284Z,4.22
2022-12-27T00:11:01.707Z,4.21
2022-12-27T00:12:01.399Z,4.21
2022-12-27T00:12:10.106Z,4.11
2022-12-27T00:13:10.943Z,4.11
2022-12-27T00:14:11.915Z,4.11
2022-12-27T00:15:12.877Z,4.11
2022-12-27T00:16:13.126Z,4.11
2022-12-27T00:17:13.104Z,4.11
2022-12-27T00:18:14.083Z,4.12
2022-12-27T00:19:15.956Z,4.12
2022-12-27T00:20:15.934Z,4.12
2022-12-27T00:21:16.336Z,4.13
2022-12-27T00:22:16.341Z,4.13
2022-12-27T00:23:16.508Z,4.12
2022-12-27T00:24:17.433Z,4.13
2022-12-27T00:25:18.260Z,4.13
2022-12-27T00:26:19.233Z,4.13
2022-12-27T00:27:20.172Z,4.13
2022-12-27T00:28:21.026Z,4.13
2022-12-27T00:29:21.204Z,4.13
2022-12-27T00:30:21.599Z,4.13
2022-12-27T00:31:21.675Z,4.13
2022-12-27T00:32:22.492Z,4.14
2022-12-27T00:33:22.651Z,4.14
2022-12-27T00:34:23.506Z,4.14
2022-12-27T00:35:24.113Z,4.14
2022-12-27T00:36:24.067Z,4.13
2022-12-27T00:37:25.082Z,4.13
2022-12-27T00:38:25.721Z,4.13
2022-12-27T00:39:25.987Z,4.13
2022-12-27T00:40:26.185Z,4.12
2022-12-27T00:41:27.170Z,4.12
2022-12-27T00:41:35.839Z,4.02
2022-12-27T00:42:35.877Z,4.02
2022-12-27T00:43:35.967Z,4.02
2022-12-27T00:44:36.895Z,4.02
2022-12-27T00:45:37.997Z,4.02
2022-12-27T00:46:38.763Z,4.02
2022-12-27T00:47:39.676Z,4.02
2022-12-27T00:48:39.855Z,4.02
2022-12-27T00:49:39.942Z,4.02
2022-12-27T00:50:40.789Z,4.01
2022-12-27T00:51:40.824Z,4.01
2022-12-27T00:52:41.806Z,4.01
2022-12-27T00:53:42.438Z,4.01
2022-12-27T00:54:42.760Z,4.01
2022-12-27T00:55:43.517Z,4.01
2022-12-27T00:56:44.345Z,4.01
2022-12-27T00:57:45.216Z,4.01
2022-12-27T00:58:46.046Z,4.01
2022-12-27T00:59:46.578Z,4.01
2022-12-27T01:00:47.328Z,4.01
2022-12-27T01:01:47.509Z,4.01
2022-12-27T01:02:48.118Z,4.01
2022-12-27T01:03:48.277Z,4.02
2022-12-27T01:04:49.104Z,4.02
2022-12-27T01:05:49.151Z,4.02
2022-12-27T01:06:49.168Z,4.02
2022-12-27T01:07:51.007Z,4.02
2022-12-27T01:08:50.049Z,4.02
2022-12-27T01:09:50.926Z,4.02
2022-12-27T01:10:51.663Z,4.01
2022-12-27T01:11:00.345Z,3.94
2022-12-27T01:12:00.387Z,3.94
2022-12-27T01:13:00.507Z,3.94
2022-12-27T01:14:00.565Z,3.94
2022-12-27T01:15:01.419Z,3.93
2022-12-27T01:16:02.321Z,3.93
2022-12-27T01:17:03.287Z,3.92
2022-12-27T01:18:04.074Z,3.92
2022-12-27T01:19:04.858Z,3.91
2022-12-27T01:20:05.799Z,3.91
2022-12-27T01:21:06.551Z,3.91
2022-12-27T01:22:06.991Z,3.90
2022-12-27T01:23:07.897Z,3.90
2022-12-27T01:24:07.892Z,3.90
2022-12-27T01:25:08.807Z,3.90
2022-12-27T01:26:09.664Z,3.90
2022-12-27T01:27:10.422Z,3.90
2022-12-27T01:28:11.246Z,3.90
2022-12-27T01:29:12.102Z,3.90
2022-12-27T01:30:12.877Z,3.90
2022-12-27T01:31:13.269Z,3.90
2022-12-27T01:32:14.075Z,3.90
2022-12-27T01:33:14.138Z,3.90
2022-12-27T01:34:15.037Z,3.91
2022-12-27T01:35:16.010Z,3.91
2022-12-27T01:36:16.772Z,3.91
2022-12-27T01:37:18.624Z,3.91
2022-12-27T01:38:17.666Z,3.91
2022-12-27T01:39:18.248Z,3.91
2022-12-27T01:39:27.416Z,3.98
2022-12-27T01:40:28.168Z,3.98
2022-12-27T01:41:28.402Z,3.98
2022-12-27T01:42:29.270Z,3.97
2022-12-27T01:43:29.849Z,3.97
2022-12-27T01:44:30.799Z,3.97
2022-12-27T01:45:31.684Z,3.97
2022-12-27T01:46:32.528Z,3.97
2022-12-27T01:47:32.773Z,3.97
2022-12-27T01:48:33.262Z,3.97
2022-12-27T01:49:34.223Z,3.97
2022-12-27T01:50:34.338Z,3.97
2022-12-27T01:51:34.463Z,3.97
2022-12-27T01:52:35.435Z,3.98
2022-12-27T01:53:36.219Z,3.98
2022-12-27T01:54:36.227Z,3.98
2022-12-27T01:55:37.137Z,3.98
2022-12-27T01:56:37.929Z,3.98
2022-12-27T01:57:38.019Z,3.98
2022-12-27T01:58:38.040Z,3.98
2022-12-27T01:59:38.918Z,3.99
2022-12-27T02:00:39.291Z,3.99
2022-12-27T02:01:39.992Z,4.00
2022-12-27T02:02:40.108Z,4.00
2022-12-27T02:03:40.653Z,4.01
2022-12-27T02:04:41.397Z,4.01
2022-12-27T02:05:42.397Z,4.02
2022-12-27T02:06:42.453Z,4.02
2022-12-27T02:07:43.230Z,4.03
2022-12-27T02:08:44.082Z,4.04
2022-12-27T02:08:57.732Z,4.16
2022-12-27T02:09:57.827Z,4.16
2022-12-27T02:10:58.482Z,4.16
2022-12-27T02:11:58.708Z,4.16
2022-12-27T02:12:59.677Z,4.16
2022-12-27T02:14:00.452Z,4.16
2022-12-27T02:15:01.479Z,4.16
2022-12-27T02:16:01.782Z,4.17
2022-12-27T02:17:02.601Z,4.17
2022-12-27T02:18:03.306Z,4.17
2022-12-27T02:19:04.280Z,4.17
2022-12-27T02:20:04.810Z,4.18
2022-12-27T02:21:05.617Z,4.18
2022-12-27T02:22:05.621Z,4.18
2022-12-27T02:23:05.926Z,4.18
2022-12-27T02:24:05.947Z,4.18
2022-12-27T02:25:06.899Z,4.18
2022-12-27T02:26:07.261Z,4.18
2022-12-27T02:27:07.938Z,4.18
2022-12-27T02:28:07.963Z,4.18
2022-12-27T02:29:08.070Z,4.18
2022-12-27T02:30:09.948Z,4.18
2022-12-27T02:31:09.642Z,4.18
2022-12-27T02:32:10.394Z,4.18
2022-12-27T02:33:10.416Z,4.18
2022-12-27T02:34:11.217Z,4.19
2022-12-27T02:35:11.758Z,4.19
2022-12-27T02:36:12.107Z,4.19
2022-12-27T02:37:12.906Z,4.19
2022-12-27T02:37:21.553Z,4.19
2022-12-27T02:38:22.305Z,4.18
2022-12-27T02:39:25.509Z,4.18
2022-12-27T02:40:23.934Z,4.19
2022-12-27T02:41:23.991Z,4.18
2022-12-27T02:42:24.012Z,4.18
2022-12-27T02:43:24.124Z,4.18
2022-12-27T02:44:24.837Z,4.18
2022-12-27T02:45:25.758Z,4.18
2022-12-27T02:46:25.982Z,4.18
2022-12-27T02:47:26.358Z,4.19
2022-12-27T02:48:26.023Z,4.19
2022-12-27T02:49:26.216Z,4.19
2022-12-27T02:50:27.144Z,4.20
2022-12-27T02:51:27.464Z,4.20
2022-12-27T02:52:27.501Z,4.20
2022-12-27T02:53:28.065Z,4.21
2022-12-27T02:54:28.998Z,4.21
2022-12-27T02:55:29.996Z,4.21
2022-12-27T02:56:30.866Z,4.22
2022-12-27T02:57:30.994Z,4.22
2022-12-27T02:58:31.311Z,4.23
2022-12-27T02:59:32.225Z,4.23
2022-12-27T03:00:32.440Z,4.24
2022-12-27T03:01:32.629Z,4.25
2022-12-27T03:02:33.106Z,4.25
2022-12-27T03:03:33.072Z,4.26
2022-12-27T03:04:34.001Z,4.27
2022-12-27T03:05:34.081Z,4.27
2022-12-27T03:06:34.838Z,4.27
2022-12-27T03:06:43.555Z,4.33
2022-12-27T03:07:44.033Z,4.33
2022-12-27T03:08:44.077Z,4.33
2022-12-27T03:09:44.151Z,4.33
2022-12-27T03:10:44.294Z,4.33
2022-12-27T03:11:45.240Z,4.32
2022-12-27T03:12:45.255Z,4.33
2022-12-27T03:13:45.331Z,4.33
2022-12-27T03:14:45.433Z,4.33
2022-12-27T03:15:46.342Z,4.33
2022-12-27T03:16:47.117Z,4.33
2022-12-27T03:17:47.398Z,4.33
2022-12-27T03:18:47.666Z,4.33
2022-12-27T03:19:48.585Z,4.33
2022-12-27T03:20:49.344Z,4.33
2022-12-27T03:21:50.000Z,4.33
2022-12-27T03:22:50.404Z,4.32
2022-12-27T03:23:50.725Z,4.32
2022-12-27T03:24:51.648Z,4.31
2022-12-27T03:25:52.212Z,4.31
2022-12-27T03:26:53.119Z,4.31
2022-12-27T03:27:54.124Z,4.30
2022-12-27T03:28:55.520Z,4.30
2022-12-27T03:29:54.658Z,4.29
2022-12-27T03:30:55.704Z,4.29
2022-12-27T03:31:56.265Z,4.29
2022-12-27T03:32:56.652Z,4.29
2022-12-27T03:33:57.443Z,4.29
2022-12-27T03:34:57.581Z,4.29
2022-12-27T03:35:58.187Z,4.29
2022-12-27T03:36:58.111Z,4.29
2022-12-27T03:37:58.984Z,4.28
2022-12-27T03:38:59.294Z,4.28
2022-12-27T03:39:07.971Z,4.27
2022-12-27T03:40:08.918Z,4.27
2022-12-27T03:41:09.547Z,4.27
2022-12-27T03:42:10.886Z,4.27
2022-12-27T03:43:10.844Z,4.27
2022-12-27T03:44:10.974Z,4.27
2022-12-27T03:45:11.852Z,4.27
2022-12-27T03:46:12.038Z,4.27
2022-12-27T03:47:11.998Z,4.27
2022-12-27T03:48:12.161Z,4.27
2022-12-27T03:49:13.114Z,4.27
2022-12-27T03:50:13.750Z,4.27
2022-12-27T03:51:14.706Z,4.27
2022-12-27T03:52:15.392Z,4.26
2022-12-27T03:53:15.517Z,4.26
2022-12-27T03:54:15.896Z,4.26
2022-12-27T03:55:16.042Z,4.26
2022-12-27T03:56:16.411Z,4.26
2022-12-27T03:57:16.534Z,4.26
2022-12-27T03:58:17.406Z,4.26
2022-12-27T03:59:18.063Z,4.27
2022-12-27T04:00:18.156Z,4.27
2022-12-27T04:01:19.046Z,4.26
2022-12-27T04:02:20.053Z,4.26
2022-12-27T04:03:20.031Z,4.26
2022-12-27T04:04:20.482Z,4.27
2022-12-27T04:05:21.013Z,4.27
2022-12-27T04:06:21.468Z,4.27
2022-12-27T04:07:21.684Z,4.27
2022-12-27T04:08:21.863Z,4.27
2022-12-27T04:09:22.634Z,4.27
2022-12-27T04:10:23.169Z,4.27
2022-12-27T04:10:31.771Z,4.26
2022-12-27T04:11:32.149Z,4.26
2022-12-27T04:12:32.403Z,4.26
2022-12-27T04:13:32.927Z,4.25
2022-12-27T04:14:33.330Z,4.26
2022-12-27T04:15:33.390Z,4.26
2022-12-27T04:16:33.691Z,4.26
2022-12-27T04:17:34.197Z,4.27
2022-12-27T04:18:34.519Z,4.27
2022-12-27T04:19:34.942Z,4.28
2022-12-27T04:20:35.857Z,4.28
2022-12-27T04:21:36.711Z,4.29
2022-12-27T04:22:37.302Z,4.29
2022-12-27T04:23:37.988Z,4.29
2022-12-27T04:24:38.675Z,4.29
2022-12-27T04:25:39.299Z,4.29
2022-12-27T04:26:39.832Z,4.29
2022-12-27T04:27:40.341Z,4.29
2022-12-27T04:28:41.953Z,4.28
2022-12-27T04:29:41.685Z,4.28
2022-12-27T04:30:42.547Z,4.28
2022-12-27T04:31:43.245Z,4.28
2022-12-27T04:32:43.494Z,4.27
2022-12-27T04:33:44.199Z,4.27
2022-12-27T04:34:45.074Z,4.27
2022-12-27T04:35:45.990Z,4.26
2022-12-27T04:36:46.728Z,4.26
2022-12-27T04:37:46.811Z,4.26
2022-12-27T04:38:47.494Z,4.26
2022-12-27T04:39:48.387Z,4.26
2022-12-27T04:40:48.498Z,4.26
2022-12-27T04:41:49.149Z,4.27
2022-12-27T04:42:00.388Z,4.34
2022-12-27T04:43:01.328Z,4.34
2022-12-27T04:44:01.426Z,4.34
2022-12-27T04:45:01.608Z,4.34
2022-12-27T04:46:02.580Z,4.34
2022-12-27T04:47:03.370Z,4.35
2022-12-27T04:48:04.321Z,4.35
2022-12-27T04:49:04.641Z,4.35
2022-12-27T04:50:04.869Z,4.36
2022-12-27T04:51:05.800Z,4.36
2022-12-27T04:52:06.682Z,4.37
2022-12-27T04:53:07.778Z,4.37
2022-12-27T04:54:08.006Z,4.38
2022-12-27T04:55:07.939Z,4.39
2022-12-27T04:56:08.006Z,4.39
2022-12-27T04:57:08.917Z,4.40
2022-12-27T04:58:09.822Z,4.40
2022-12-27T04:59:11.175Z,4.40
2022-12-27T05:00:11.007Z,4.41
2022-12-27T05:01:14.277Z,4.41
2022-12-27T05:02:12.641Z,4.41
2022-12-27T05:03:13.442Z,4.42
2022-12-27T05:04:14.166Z,4.43
2022-12-27T05:05:15.085Z,4.43
2022-12-27T05:06:15.907Z,4.44
2022-12-27T05:07:15.967Z,4.44
2022-12-27T05:08:16.703Z,4.45
2022-12-27T05:09:21.468Z,4.45
2022-12-27T05:09:25.562Z,4.52
2022-12-27T05:10:25.742Z,4.51
2022-12-27T05:11:26.155Z,4.51
2022-12-27T05:12:26.323Z,4.51
2022-12-27T05:13:27.174Z,4.51
2022-12-27T05:14:27.308Z,4.51
2022-12-27T05:15:27.366Z,4.52
2022-12-27T05:16:28.277Z,4.52
2022-12-27T05:17:29.010Z,4.52
2022-12-27T05:18:29.935Z,4.52
2022-12-27T05:19:30.082Z,4.52
2022-12-27T05:20:30.990Z,4.52
2022-12-27T05:21:31.070Z,4.52
2022-12-27T05:22:31.951Z,4.52
2022-12-27T05:23:31.952Z,4.52
2022-12-27T05:24:32.731Z,4.52
2022-12-27T05:25:33.271Z,4.53
2022-12-27T05:26:34.259Z,4.53
2022-12-27T05:27:34.123Z,4.53
2022-12-27T05:28:34.936Z,4.53
2022-12-27T05:29:35.928Z,4.53
2022-12-27T05:30:36.097Z,4.53
2022-12-27T05:31:36.899Z,4.54
2022-12-27T05:32:37.511Z,4.54
2022-12-27T05:33:37.664Z,4.55
2022-12-27T05:34:38.367Z,4.55
2022-12-27T05:35:39.284Z,4.56
2022-12-27T05:36:39.973Z,4.56
2022-12-27T05:37:40.759Z,4.56
2022-12-27T05:38:41.571Z,4.57
2022-12-27T05:39:42.290Z,4.57
2022-12-27T05:40:42.393Z,4.57
2022-12-27T05:40:51.005Z,4.63
2022-12-27T05:41:51.550Z,4.63
2022-12-27T05:42:52.552Z,4.63
2022-12-27T05:43:52.613Z,4.63
2022-12-27T05:44:52.964Z,4.64
2022-12-27T05:45:53.001Z,4.64
2022-12-27T05:46:53.144Z,4.64
2022-12-27T05:47:53.817Z,4.64
2022-12-27T05:48:54.147Z,4.64
2022-12-27T05:49:54.315Z,4.65
2022-12-27T05:50:54.592Z,4.65
2022-12-27T05:51:55.295Z,4.65
2022-12-27T05:52:56.301Z,4.66
2022-12-27T05:53:57.008Z,4.66
2022-12-27T05:54:57.224Z,4.67
2022-12-27T05:55:57.820Z,4.67
2022-12-27T05:56:57.811Z,4.68
2022-12-27T05:57:58.745Z,4.68
2022-12-27T05:58:59.727Z,4.69
2022-12-27T06:00:00.208Z,4.69
2022-12-27T06:01:00.257Z,4.69
2022-12-27T06:02:00.574Z,4.70
2022-12-27T06:03:00.708Z,4.70
2022-12-27T06:04:00.903Z,4.70
2022-12-27T06:05:00.964Z,4.70
2022-12-27T06:06:01.005Z,4.70
2022-12-27T06:07:01.863Z,4.69
2022-12-27T06:08:02.732Z,4.69
2022-12-27T06:09:03.458Z,4.68
2022-12-27T06:10:03.567Z,4.68
2022-12-27T06:11:06.753Z,4.68
2022-12-27T06:11:16.166Z,4.60
2022-12-27T06:12:16.839Z,4.60
2022-12-27T06:13:17.796Z,4.60
2022-12-27T06:14:17.863Z,4.59
2022-12-27T06:15:18.606Z,4.59
2022-12-27T06:16:18.723Z,4.59
2022-12-27T06:17:19.284Z,4.58
2022-12-27T06:18:19.489Z,4.58
2022-12-27T06:19:19.768Z,4.57
2022-12-27T06:20:20.583Z,4.57
2022-12-27T06:21:20.597Z,4.56
2022-12-27T06:22:21.828Z,4.55
2022-12-27T06:23:20.978Z,4.55
2022-12-27T06:24:21.895Z,4.54
2022-12-27T06:25:22.747Z,4.53
2022-12-27T06:26:22.903Z,4.53
2022-12-27T06:27:23.000Z,4.52
2022-12-27T06:28:23.073Z,4.52
2022-12-27T06:29:23.864Z,4.51
2022-12-27T06:30:24.833Z,4.50
2022-12-27T06:31:24.965Z,4.50
2022-12-27T06:32:25.789Z,4.49
2022-12-27T06:33:25.906Z,4.49
2022-12-27T06:34:26.008Z,4.48
2022-12-27T06:35:26.292Z,4.47
2022-12-27T06:36:26.406Z,4.47
2022-12-27T06:37:27.235Z,4.46
2022-12-27T06:38:29.226Z,4.46
2022-12-27T06:39:28.271Z,4.46
2022-12-27T06:40:28.317Z,4.45
2022-12-27T06:40:37.455Z,4.40
2022-12-27T06:41:37.692Z,4.40
2022-12-27T06:42:38.572Z,4.40
2022-12-27T06:43:39.154Z,4.40
2022-12-27T06:44:39.369Z,4.39
2022-12-27T06:45:39.812Z,4.39
2022-12-27T06:46:39.873Z,4.38
2022-12-27T06:47:40.066Z,4.37
2022-12-27T06:48:40.809Z,4.36
2022-12-27T06:49:41.716Z,4.36
2022-12-27T06:50:41.916Z,4.35
2022-12-27T06:51:42.927Z,4.34
2022-12-27T06:52:44.790Z,4.33
2022-12-27T06:53:44.160Z,4.32
2022-12-27T06:54:44.900Z,4.32
2022-12-27T06:55:45.140Z,4.30
2022-12-27T06:56:45.830Z,4.28
2022-12-27T06:57:45.863Z,4.27
2022-12-27T06:58:46.761Z,4.25
2022-12-27T06:59:52.467Z,4.24
2022-12-27T07:00:47.655Z,4.22
2022-12-27T07:01:48.510Z,4.21
2022-12-27T07:02:49.325Z,4.19
2022-12-27T07:03:49.431Z,4.18
2022-12-27T07:04:50.202Z,4.16
2022-12-27T07:05:50.969Z,4.15
2022-12-27T07:06:51.906Z,4.14
2022-12-27T07:07:52.006Z,4.12
2022-12-27T07:08:52.941Z,4.11
2022-12-27T07:09:53.032Z,4.10
2022-12-27T07:10:54.021Z,4.08
2022-12-27T07:11:03.707Z,3.87
2022-12-27T07:12:04.554Z,3.87
2022-12-27T07:13:04.662Z,3.87
2022-12-27T07:14:04.898Z,3.86
2022-12-27T07:15:05.792Z,3.86
2022-12-27T07:16:06.021Z,3.85
2022-12-27T07:17:06.175Z,3.85
2022-12-27T07:18:06.745Z,3.84
2022-12-27T07:19:07.557Z,3.84
2022-12-27T07:20:07.627Z,3.83
2022-12-27T07:21:08.043Z,3.83
2022-12-27T07:22:08.953Z,3.83
2022-12-27T07:23:11.927Z,3.83
2022-12-27T07:24:09.389Z,3.83
2022-12-27T07:25:10.317Z,3.83
2022-12-27T07:26:10.858Z,3.83
2022-12-27T07:27:11.083Z,3.83
2022-12-27T07:28:11.792Z,3.83
2022-12-27T07:29:12.497Z,3.83
2022-12-27T07:30:12.557Z,3.82
2022-12-27T07:31:12.586Z,3.82
2022-12-27T07:32:12.749Z,3.82
2022-12-27T07:33:13.302Z,3.81
2022-12-27T07:34:14.040Z,3.81
2022-12-27T07:35:14.703Z,3.81
2022-12-27T07:36:15.720Z,3.81
2022-12-27T07:37:15.726Z,3.81
2022-12-27T07:38:16.654Z,3.82
2022-12-27T07:39:17.603Z,3.82
2022-12-27T07:39:26.236Z,3.83
2022-12-27T07:40:26.905Z,3.83
2022-12-27T07:41:26.968Z,3.83
2022-12-27T07:42:27.293Z,3.82
2022-12-27T07:43:27.563Z,3.82
2022-12-27T07:44:27.796Z,3.82
2022-12-27T07:45:28.088Z,3.82
2022-12-27T07:46:29.014Z,3.81
2022-12-27T07:47:29.346Z,3.81
2022-12-27T07:48:29.671Z,3.80
2022-12-27T07:49:30.253Z,3.79
2022-12-27T07:50:30.223Z,3.78
2022-12-27T07:51:30.782Z,3.77
2022-12-27T07:52:30.896Z,3.77
2022-12-27T07:53:31.478Z,3.76
2022-12-27T07:54:31.879Z,3.76
2022-12-27T07:55:32.227Z,3.75
2022-12-27T07:56:32.645Z,3.75
2022-12-27T07:57:33.297Z,3.74
2022-12-27T07:58:33.861Z,3.74
2022-12-27T07:59:34.607Z,3.73
2022-12-27T08:00:35.122Z,3.73
2022-12-27T08:01:36.085Z,3.72
2022-12-27T08:02:36.384Z,3.72
2022-12-27T08:03:37.077Z,3.73
2022-12-27T08:04:37.580Z,3.73
2022-12-27T08:05:38.190Z,3.74
2022-12-27T08:06:38.848Z,3.74
2022-12-27T08:07:39.812Z,3.75
2022-12-27T08:08:39.892Z,3.77
2022-12-27T08:08:48.604Z,3.98
2022-12-27T08:09:49.350Z,3.98
2022-12-27T08:10:50.196Z,3.98
2022-12-27T08:11:51.078Z,3.98
2022-12-27T08:12:51.867Z,3.99
2022-12-27T08:13:52.786Z,4.00
2022-12-27T08:14:52.808Z,4.00
2022-12-27T08:15:53.539Z,4.01
2022-12-27T08:16:54.475Z,4.02
2022-12-27T08:17:54.983Z,4.03
2022-12-27T08:18:55.934Z,4.03
2022-12-27T08:19:56.792Z,4.02
2022-12-27T08:20:57.445Z,4.02
2022-12-27T08:21:57.771Z,4.02
2022-12-27T08:22:58.836Z,4.02
2022-12-27T08:23:59.487Z,4.01
2022-12-27T08:25:00.037Z,4.01
2022-12-27T08:26:00.938Z,4.01
2022-12-27T08:27:01.959Z,4.02
2022-12-27T08:28:03.471Z,4.02
2022-12-27T08:29:03.424Z,4.03
2022-12-27T08:30:04.249Z,4.04
2022-12-27T08:31:04.562Z,4.05
2022-12-27T08:32:06.358Z,4.06
2022-12-27T08:33:05.450Z,4.08
2022-12-27T08:34:05.674Z,4.09
2022-12-27T08:35:41.842Z,4.11
2022-12-27T08:36:28.528Z,4.13
2022-12-27T08:37:06.134Z,4.15
2022-12-27T08:38:07.063Z,4.16
2022-12-27T08:38:15.795Z,4.42
2022-12-27T08:39:15.937Z,4.42
2022-12-27T08:40:16.869Z,4.42
2022-12-27T08:41:16.947Z,4.43
2022-12-27T08:42:16.998Z,4.44
2022-12-27T08:43:17.451Z,4.44
2022-12-27T08:44:17.466Z,4.45
2022-12-27T08:45:17.606Z,4.45
2022-12-27T08:46:18.670Z,4.46
2022-12-27T08:47:19.394Z,4.47
2022-12-27T08:48:20.433Z,4.48
2022-12-27T08:49:20.440Z,4.49
2022-12-27T08:50:20.783Z,4.50
2022-12-27T08:51:32.737Z,4.51
2022-12-27T08:52:21.706Z,4.52
2022-12-27T08:53:22.112Z,4.53
2022-12-27T08:54:22.242Z,4.54
2022-12-27T08:55:23.115Z,4.55
2022-12-27T08:56:24.011Z,4.56
2022-12-27T08:57:24.736Z,4.56
2022-12-27T08:58:25.652Z,4.58
2022-12-27T08:59:25.754Z,4.59
2022-12-27T09:00:26.285Z,4.59
2022-12-27T09:01:27.361Z,4.60
2022-12-27T09:02:27.783Z,4.61
2022-12-27T09:03:28.264Z,4.61
2022-12-27T09:04:28.581Z,4.62
2022-12-27T09:05:28.658Z,4.62
2022-12-27T09:06:28.775Z,4.62
2022-12-27T09:07:29.646Z,4.63
2022-12-27T09:08:29.828Z,4.63
2022-12-27T09:08:38.451Z,4.69
2022-12-27T09:09:38.817Z,4.69
2022-12-27T09:10:39.790Z,4.69
2022-12-27T09:11:40.680Z,4.69
2022-12-27T09:12:40.804Z,4.69
2022-12-27T09:13:41.496Z,4.69
2022-12-27T09:14:43.465Z,4.68
2022-12-27T09:15:43.049Z,4.68
2022-12-27T09:16:43.957Z,4.69
2022-12-27T09:17:44.186Z,4.69
2022-12-27T09:18:44.326Z,4.69
2022-12-27T09:19:44.731Z,4.69
2022-12-27T09:20:44.892Z,4.70
2022-12-27T09:21:45.727Z,4.70
2022-12-27T09:22:46.017Z,4.70
2022-12-27T09:23:46.368Z,4.71
2022-12-27T09:24:46.933Z,4.72
2022-12-27T09:25:47.538Z,4.73
2022-12-27T09:26:48.413Z,4.74
2022-12-27T09:27:48.521Z,4.75
2022-12-27T09:28:48.741Z,4.76
2022-12-27T09:29:49.002Z,4.78
2022-12-27T09:30:50.915Z,4.79
2022-12-27T09:31:50.755Z,4.80
2022-12-27T09:32:51.716Z,4.81
2022-12-27T09:33:52.658Z,4.82
2022-12-27T09:34:52.770Z,4.82
2022-12-27T09:35:53.653Z,4.83
2022-12-27T09:36:02.299Z,4.92
2022-12-27T09:37:03.088Z,4.92
2022-12-27T09:38:03.884Z,4.92
2022-12-27T09:39:04.287Z,4.92
2022-12-27T09:40:04.960Z,4.91
2022-12-27T09:41:05.292Z,4.91
2022-12-27T09:42:47.727Z,4.91
2022-12-27T09:43:16.629Z,4.91
2022-12-27T09:44:06.461Z,4.91
2022-12-27T09:45:07.445Z,4.91
2022-12-27T09:46:07.482Z,4.91
2022-12-27T09:47:08.409Z,4.91
2022-12-27T09:48:08.796Z,4.91
2022-12-27T09:49:09.719Z,4.90
2022-12-27T09:50:10.671Z,4.90
2022-12-27T09:51:11.467Z,4.90
2022-12-27T09:52:12.294Z,4.89
2022-12-27T09:53:12.774Z,4.89
2022-12-27T09:54:13.680Z,4.88
2022-12-27T09:55:14.662Z,4.88
2022-12-27T09:56:14.979Z,4.88
2022-12-27T09:57:20.481Z,4.87
2022-12-27T09:58:16.690Z,4.87
2022-12-27T09:59:16.920Z,4.87
2022-12-27T10:00:17.688Z,4.87
2022-12-27T10:01:18.730Z,4.87
2022-12-27T10:02:18.908Z,4.88
2022-12-27T10:03:18.977Z,4.88
2022-12-27T10:04:20.015Z,4.88
2022-12-27T10:04:45.511Z,4.93
2022-12-27T10:05:28.720Z,4.93
2022-12-27T10:06:29.005Z,4.93
2022-12-27T10:07:29.390Z,4.93
2022-12-27T10:08:30.265Z,4.93
2022-12-27T10:09:31.224Z,4.93
2022-12-27T10:10:32.205Z,4.93
2022-12-27T10:11:33.138Z,4.93
2022-12-27T10:12:34.002Z,4.93
2022-12-27T10:13:34.906Z,4.93
2022-12-27T10:14:35.032Z,4.93
2022-12-27T10:15:35.635Z,4.93
2022-12-27T10:16:35.583Z,4.93
2022-12-27T10:17:36.489Z,4.94
2022-12-27T10:18:37.348Z,4.94
2022-12-27T10:19:37.572Z,4.95
2022-12-27T10:20:38.293Z,4.95
2022-12-27T10:21:39.296Z,4.96
2022-12-27T10:22:39.844Z,4.97
2022-12-27T10:23:40.785Z,4.98
2022-12-27T10:24:41.465Z,4.99
2022-12-27T10:25:42.399Z,5.00
2022-12-27T10:26:43.700Z,5.01
2022-12-27T10:27:43.284Z,5.02
2022-12-27T10:28:44.266Z,5.03
2022-12-27T10:29:45.081Z,5.05
2022-12-27T10:30:45.883Z,5.06
2022-12-27T10:31:46.727Z,5.08
2022-12-27T10:32:46.909Z,5.09
2022-12-27T10:33:47.043Z,5.10
2022-12-27T10:33:55.679Z,5.26
2022-12-27T10:34:56.601Z,5.26
2022-12-27T10:35:57.500Z,5.26
2022-12-27T10:36:57.633Z,5.26
2022-12-27T10:37:57.630Z,5.27
2022-12-27T10:38:59.536Z,5.27
2022-12-27T10:39:58.593Z,5.27
2022-12-27T10:40:58.687Z,5.28
2022-12-27T10:41:59.629Z,5.28
2022-12-27T10:43:00.379Z,5.29
2022-12-27T10:44:00.459Z,5.30
2022-12-27T10:45:00.621Z,5.31
2022-12-27T10:46:00.835Z,5.32
2022-12-27T10:47:01.099Z,5.33
2022-12-27T10:48:01.108Z,5.34
2022-12-27T10:49:23.069Z,5.34
2022-12-27T10:50:02.034Z,5.34
2022-12-27T10:51:02.788Z,5.35
2022-12-27T10:52:03.252Z,5.35
2022-12-27T10:53:03.749Z,5.34
2022-12-27T10:54:03.898Z,5.35
2022-12-27T10:55:04.256Z,5.35
2022-12-27T10:56:04.258Z,5.35
2022-12-27T10:57:05.209Z,5.35
2022-12-27T10:58:05.642Z,5.35
2022-12-27T10:59:06.554Z,5.36
2022-12-27T11:00:07.004Z,5.36
2022-12-27T11:01:07.859Z,5.36
2022-12-27T11:02:08.395Z,5.36
2022-12-27T11:02:17.275Z,5.38
2022-12-27T11:03:18.054Z,5.37
2022-12-27T11:04:20.933Z,5.38
2022-12-27T11:05:19.944Z,5.38
2022-12-27T11:06:20.116Z,5.38
2022-12-27T11:07:20.262Z,5.38
2022-12-27T11:08:20.656Z,5.39
2022-12-27T11:09:21.546Z,5.39
2022-12-27T11:10:22.503Z,5.39
2022-12-27T11:11:22.799Z,5.40
2022-12-27T11:12:22.900Z,5.40
2022-12-27T11:13:23.079Z,5.40
2022-12-27T11:14:23.216Z,5.41
2022-12-27T11:15:24.108Z,5.41
2022-12-27T11:16:24.218Z,5.41
2022-12-27T11:17:25.210Z,5.41
2022-12-27T11:18:25.347Z,5.42
2022-12-27T11:19:26.306Z,5.42
2022-12-27T11:20:28.245Z,5.42
2022-12-27T11:21:28.256Z,5.43
2022-12-27T11:22:27.771Z,5.43
2022-12-27T11:23:27.836Z,5.42
2022-12-27T11:24:27.939Z,5.42
2022-12-27T11:25:28.884Z,5.41
2022-12-27T11:26:28.982Z,5.41
2022-12-27T11:27:29.036Z,5.41
2022-12-27T11:28:29.979Z,5.41
2022-12-27T11:29:30.249Z,5.41
2022-12-27T11:30:31.175Z,5.40
2022-12-27T11:31:31.280Z,5.40
2022-12-27T11:31:39.891Z,5.32
2022-12-27T11:32:40.220Z,5.32
2022-12-27T11:33:40.348Z,5.32
2022-12-27T11:34:40.593Z,5.32
2022-12-27T11:35:41.566Z,5.32
2022-12-27T11:36:41.717Z,5.32
2022-12-27T11:37:42.011Z,5.32
2022-12-27T11:38:42.905Z,5.32
2022-12-27T11:39:43.878Z,5.32
2022-12-27T11:40:44.677Z,5.32
2022-12-27T11:41:45.536Z,5.32
2022-12-27T11:42:46.475Z,5.32
2022-12-27T11:43:46.939Z,5.32
2022-12-27T11:44:47.857Z,5.33
2022-12-27T11:45:47.980Z,5.33
2022-12-27T11:46:52.645Z,5.33
2022-12-27T11:47:48.863Z,5.33
2022-12-27T11:48:49.710Z,5.34
2022-12-27T11:49:49.852Z,5.34
2022-12-27T11:50:50.598Z,5.34
2022-12-27T11:51:51.416Z,5.34
2022-12-27T11:52:51.761Z,5.35
2022-12-27T11:53:56.266Z,5.35
2022-12-27T11:54:52.578Z,5.35
2022-12-27T11:55:53.428Z,5.35
2022-12-27T11:56:54.277Z,5.35
2022-12-27T11:57:54.859Z,5.36
2022-12-27T11:58:55.658Z,5.36
2022-12-27T11:59:56.579Z,5.36
2022-12-27T12:01:00.556Z,5.36
2022-12-27T12:01:06.384Z,5.45
2022-12-27T12:02:07.006Z,5.45
2022-12-27T12:03:07.064Z,5.45
2022-12-27T12:04:07.052Z,5.45
2022-12-27T12:05:07.737Z,5.45
2022-12-27T12:06:09.524Z,5.46
2022-12-27T12:07:08.628Z,5.46
2022-12-27T12:08:08.733Z,5.46
2022-12-27T12:09:09.596Z,5.47
2022-12-27T12:10:09.948Z,5.48
2022-12-27T12:11:10.930Z,5.48
2022-12-27T12:12:12.493Z,5.48
2022-12-27T12:13:11.759Z,5.49
2022-12-27T12:14:12.151Z,5.50
2022-12-27T12:15:14.175Z,5.51
2022-12-27T12:16:14.074Z,5.52
2022-12-27T12:17:15.238Z,5.53
2022-12-27T12:18:16.178Z,5.54
2022-12-27T12:19:16.059Z,5.56
2022-12-27T12:20:16.752Z,5.57
2022-12-27T12:21:17.616Z,5.59
2022-12-27T12:22:17.718Z,5.61
2022-12-27T12:23:17.751Z,5.63
2022-12-27T12:24:17.841Z,5.64
2022-12-27T12:25:18.685Z,5.66
2022-12-27T12:26:19.092Z,5.68
2022-12-27T12:27:20.051Z,5.70
2022-12-27T12:27:29.688Z,6.08
2022-12-27T12:28:56.978Z,6.08
2022-12-27T12:29:29.774Z,6.08
2022-12-27T12:30:30.510Z,6.09
2022-12-27T12:31:30.670Z,6.10
2022-12-27T12:32:30.759Z,6.11
2022-12-27T12:33:31.520Z,6.13
2022-12-27T12:34:32.388Z,6.13
2022-12-27T12:35:33.001Z,6.14
2022-12-27T12:36:33.971Z,6.15
2022-12-27T12:37:34.734Z,6.16
2022-12-27T12:38:34.828Z,6.16
2022-12-27T12:39:34.920Z,6.16
2022-12-27T12:40:35.059Z,6.16
2022-12-27T12:41:35.963Z,6.17
2022-12-27T12:42:36.962Z,6.17
2022-12-27T12:43:38.762Z,6.17
2022-12-27T12:44:41.527Z,6.17
2022-12-27T12:45:38.808Z,6.18
2022-12-27T12:46:39.055Z,6.18
2022-12-27T12:47:40.030Z,6.19
2022-12-27T12:48:40.008Z,6.19
2022-12-27T12:49:41.050Z,6.19
2022-12-27T12:50:41.344Z,6.20
2022-12-27T12:51:42.220Z,6.22
2022-12-27T12:52:43.029Z,6.23
2022-12-27T12:53:43.656Z,6.24
2022-12-27T12:54:44.228Z,6.26
2022-12-27T12:55:44.450Z,6.28
2022-12-27T12:55:53.632Z,6.52
2022-12-27T12:56:53.677Z,6.52
2022-12-27T12:57:54.615Z,6.52
2022-12-27T12:58:55.459Z,6.52
2022-12-27T12:59:56.295Z,6.53
2022-12-27T13:00:56.719Z,6.53
2022-12-27T13:01:57.203Z,6.54
2022-12-27T13:02:57.899Z,6.54